Time;durP1;ratioP1;P1;durP2;ratioP2;P2;SDS_P1;SDS_P2;PMS_P1;PMS_P2;Temp;Humidity;BMP_temperature;BMP_pressure;BME280_temperature;BME280_humidity;BME280_pressure;Samples;Min_cycle;Max_cycle;Signal;HPM_P1;HPM_P2
2021/06/26 05:02:38;;;;;;;19.98;5.90;;;;;;;29.86;58.70;94709.53;4932094;23;19998;-77
2021/06/26 05:05:04;;;;;;;16.52;6.05;;;;;;;30.05;57.48;94707.53;4910703;29;20533;-77
2021/06/26 05:07:29;;;;;;;23.13;6.50;;;;;;;30.56;56.59;94705.38;4903716;29;20028;-76
2021/06/26 05:09:55;;;;;;;29.35;7.20;;;;;;;30.31;55.95;94703.25;4908530;29;20686;-77
2021/06/26 05:12:20;;;;;;;20.88;6.00;;;;;;;29.21;62.28;94712.25;4932577;29;20425;-76
2021/06/26 05:14:46;;;;;;;15.82;5.90;;;;;;;30.07;59.26;94713.38;4913657;29;20091;-75
2021/06/26 05:17:11;;;;;;;24.08;6.80;;;;;;;30.37;55.70;94696.69;4913787;29;20482;-75
2021/06/26 05:19:37;;;;;;;19.88;6.82;;;;;;;31.13;56.03;94711.03;4929415;29;20111;-76
2021/06/26 05:22:03;;;;;;;21.55;6.78;;;;;;;32.90;51.17;94704.22;4928517;29;20577;-75
2021/06/26 05:24:28;;;;;;;20.35;6.30;;;;;;;33.40;50.66;94707.97;4916351;29;20028;-75
2021/06/26 05:26:54;;;;;;;25.98;8.88;;;;;;;33.69;49.76;94719.91;4928821;29;20040;-76
2021/06/26 05:29:19;;;;;;;63.28;30.00;;;;;;;32.60;51.34;94711.31;4930716;29;20023;-79
2021/06/26 05:31:44;;;;;;;63.80;30.85;;;;;;;33.58;50.68;94722.16;4929495;29;20035;-76
2021/06/26 05:34:10;;;;;;;56.95;24.55;;;;;;;34.72;46.01;94722.09;4913624;29;20514;-77
2021/06/26 05:36:35;;;;;;;42.60;21.83;;;;;;;34.37;47.57;94716.94;4924755;29;20040;-77
2021/06/26 05:39:01;;;;;;;37.47;15.95;;;;;;;34.48;46.55;94721.94;4893601;29;20035;-76
2021/06/26 05:41:27;;;;;;;29.83;10.90;;;;;;;33.70;47.48;94724.19;4895721;29;20033;-77
2021/06/26 05:43:53;;;;;;;27.13;11.88;;;;;;;34.51;46.96;94721.28;4903257;29;20038;-75
2021/06/26 05:46:18;;;;;;;29.55;8.48;;;;;;;35.01;45.39;94723.94;4915056;29;20406;-77
2021/06/26 05:48:44;;;;;;;22.52;8.95;;;;;;;36.59;42.45;94725.84;4913241;29;20032;-77
2021/06/26 05:51:14;;;;;;;29.52;8.60;;;;;;;37.69;40.17;94720.84;4912988;29;20028;-77
2021/06/26 05:53:39;;;;;;;28.75;8.52;;;;;;;35.24;44.13;94717.88;4909373;29;20028;-77
2021/06/26 05:56:05;;;;;;;26.05;7.97;;;;;;;36.46;42.03;94708.84;4875871;29;20043;-79
2021/06/26 05:58:33;;;;;;;29.95;8.73;;;;;;;33.00;49.00;94697.75;4876995;29;20411;-83
2021/06/26 06:00:59;;;;;;;30.73;9.77;;;;;;;32.32;50.60;94696.59;4872788;29;20533;-83
2021/06/26 06:03:24;;;;;;;32.47;10.00;;;;;;;34.07;47.73;94684.97;4876620;29;20028;-82
2021/06/26 06:05:51;;;;;;;30.05;8.88;;;;;;;32.75;46.00;94686.69;4877767;29;20036;-81
2021/06/26 06:08:17;;;;;;;22.42;6.57;;;;;;;37.36;38.01;94692.16;4869116;29;20021;-85
2021/06/26 06:10:42;;;;;;;24.58;6.47;;;;;;;37.73;35.99;94703.53;4876851;29;20096;-85
2021/06/26 06:13:12;;;;;;;25.98;6.68;;;;;;;38.75;34.89;94696.28;4873547;29;20037;-80
2021/06/26 06:15:39;;;;;;;17.80;5.97;;;;;;;39.12;34.66;94707.50;4857773;29;20502;-78
2021/06/26 06:18:05;;;;;;;24.45;6.57;;;;;;;37.59;35.33;94702.41;4858347;29;20040;-79
2021/06/26 06:20:30;;;;;;;28.85;6.13;;;;;;;39.30;34.12;94708.69;4867506;29;20041;-78
2021/06/26 06:22:55;;;;;;;25.08;6.32;;;;;;;36.40;36.20;94704.81;4873319;29;20058;-83
2021/06/26 06:25:21;;;;;;;21.75;5.78;;;;;;;39.16;33.94;94716.50;4891396;29;20043;-79
2021/06/26 06:27:46;;;;;;;27.20;6.13;;;;;;;40.15;34.05;94712.91;4871933;29;20045;-84
2021/06/26 06:30:12;;;;;;;25.77;6.57;;;;;;;38.58;33.07;94708.31;4877421;29;20033;-79
2021/06/26 06:32:38;;;;;;;24.17;7.85;;;;;;;41.14;31.34;94709.69;4878022;29;20040;-80
2021/06/26 06:35:05;;;;;;;23.35;6.68;;;;;;;37.99;33.90;94711.16;4875278;29;20080;-80
2021/06/26 06:37:30;;;;;;;25.05;6.38;;;;;;;37.68;36.27;94708.44;4898142;29;20049;-77
2021/06/26 06:39:56;;;;;;;25.85;6.05;;;;;;;37.20;33.95;94712.16;4874531;29;20088;-79
2021/06/26 06:42:21;;;;;;;31.80;6.72;;;;;;;36.78;35.16;94707.09;4893107;29;20043;-81
2021/06/26 06:44:47;;;;;;;17.65;5.55;;;;;;;34.09;41.26;94706.94;4876068;29;20040;-80
2021/06/26 06:47:12;;;;;;;15.48;5.00;;;;;;;33.76;40.83;94702.19;4877161;29;20032;-77
2021/06/26 06:49:38;;;;;;;20.13;6.18;;;;;;;34.30;42.56;94699.72;4913470;29;20020;-78
2021/06/26 06:52:03;;;;;;;18.73;5.90;;;;;;;33.56;44.54;94699.38;4894600;29;20114;-79
2021/06/26 06:54:29;;;;;;;25.10;5.68;;;;;;;33.73;43.11;94693.97;4879596;29;20046;-76
2021/06/26 06:56:54;;;;;;;23.20;6.10;;;;;;;33.66;41.98;94701.75;4882528;29;20481;-78
2021/06/26 06:59:20;;;;;;;21.92;5.85;;;;;;;38.91;33.74;94689.69;4915024;29;20050;-78
2021/06/26 07:01:45;;;;;;;17.83;6.05;;;;;;;41.63;30.57;94692.34;4895016;29;20048;-78
2021/06/26 07:04:11;;;;;;;20.15;5.25;;;;;;;41.33;31.54;94693.19;4912830;29;20089;-77
2021/06/26 07:06:36;;;;;;;20.83;6.07;;;;;;;37.75;35.05;94689.69;4927678;29;20546;-77
2021/06/26 07:09:02;;;;;;;22.17;5.50;;;;;;;39.51;34.19;94690.06;4910447;29;20398;-76
2021/06/26 07:11:27;;;;;;;17.13;5.88;;;;;;;39.36;33.07;94689.06;4927339;29;20043;-78
2021/06/26 07:13:53;;;;;;;27.45;6.35;;;;;;;40.64;32.06;94685.72;4910418;29;20569;-80
2021/06/26 07:16:18;;;;;;;16.88;5.30;;;;;;;38.40;36.14;94685.47;4898342;29;20031;-77
2021/06/26 07:18:44;;;;;;;22.20;5.60;;;;;;;35.03;40.43;94686.69;4926157;29;20032;-78
2021/06/26 07:21:09;;;;;;;19.02;5.38;;;;;;;33.53;41.84;94679.31;4910140;29;20036;-78
2021/06/26 07:23:35;;;;;;;24.63;5.57;;;;;;;33.62;42.95;94682.03;4892398;29;20024;-78
2021/06/26 07:26:00;;;;;;;23.80;6.40;;;;;;;33.05;42.30;94681.47;4889242;29;20075;-78
2021/06/26 07:28:25;;;;;;;17.23;5.57;;;;;;;33.71;43.33;94690.84;4927312;29;20637;-78
2021/06/26 07:30:51;;;;;;;18.35;5.60;;;;;;;33.84;41.37;94695.97;4909607;29;20098;-78
2021/06/26 07:33:16;;;;;;;20.67;6.03;;;;;;;32.51;45.72;94688.25;4898008;29;20039;-79
2021/06/26 07:35:42;;;;;;;34.13;6.38;;;;;;;32.11;44.21;94695.63;4909741;29;20025;-81
2021/06/26 07:38:07;;;;;;;22.45;5.55;;;;;;;33.33;41.30;94698.81;4901656;29;20056;-79
2021/06/26 07:40:33;;;;;;;22.58;5.93;;;;;;;32.15;45.43;94700.03;4915104;29;20431;-83
2021/06/26 07:42:58;;;;;;;22.60;5.47;;;;;;;33.34;45.40;94711.13;4889338;29;20035;-79
2021/06/26 07:45:23;;;;;;;24.55;6.43;;;;;;;32.56;44.61;94701.53;4900313;29;20115;-79
2021/06/26 07:47:49;;;;;;;18.90;5.50;;;;;;;33.07;46.85;94704.22;4874674;29;20569;-79
2021/06/26 07:50:14;;;;;;;19.90;5.78;;;;;;;33.75;44.54;94695.22;4918376;29;20083;-81
2021/06/26 07:52:40;;;;;;;21.70;5.85;;;;;;;32.08;45.77;94707.72;4909764;29;20024;-81
2021/06/26 07:55:06;;;;;;;26.45;5.47;;;;;;;32.95;43.30;94697.88;4912041;29;20692;-79
2021/06/26 07:57:32;;;;;;;24.50;6.28;;;;;;;32.96;43.91;94705.66;4924941;29;20105;-81
2021/06/26 07:59:57;;;;;;;20.52;5.78;;;;;;;33.05;44.93;94708.31;4894526;29;20032;-83
2021/06/26 08:02:23;;;;;;;23.77;5.15;;;;;;;34.01;39.00;94699.69;4894636;29;20040;-80
2021/06/26 08:04:48;;;;;;;26.30;6.28;;;;;;;32.40;45.48;94703.09;4893230;29;20040;-81
2021/06/26 08:07:13;;;;;;;23.83;5.55;;;;;;;32.22;44.12;94696.88;4911023;29;20036;-80
2021/06/26 08:09:39;;;;;;;16.15;5.53;;;;;;;33.69;43.43;94703.78;4912950;29;20052;-79
2021/06/26 08:12:05;;;;;;;25.55;5.60;;;;;;;32.72;44.84;94705.34;4887135;29;20407;-80
2021/06/26 08:14:30;;;;;;;21.27;4.97;;;;;;;32.65;42.02;94695.09;4854952;29;20036;-79
2021/06/26 08:16:56;;;;;;;22.20;6.03;;;;;;;31.83;44.25;94697.69;4872333;29;20526;-79
2021/06/26 08:19:21;;;;;;;24.30;5.68;;;;;;;32.31;43.08;94700.38;4877274;29;20035;-79
2021/06/26 08:21:47;;;;;;;22.70;5.53;;;;;;;31.28;44.96;94700.72;4893952;29;20031;-81
2021/06/26 08:24:13;;;;;;;26.70;5.85;;;;;;;33.23;44.75;94701.84;4894170;29;20417;-83
2021/06/26 08:26:39;;;;;;;17.38;5.45;;;;;;;31.78;45.57;94695.16;4877919;29;20024;-78
2021/06/26 08:29:04;;;;;;;16.65;4.55;;;;;;;33.28;44.92;94697.09;4894881;29;20043;-81
2021/06/26 08:31:30;;;;;;;20.65;4.57;;;;;;;33.46;40.50;94691.69;4877455;29;20059;-80
2021/06/26 08:33:55;;;;;;;19.30;4.97;;;;;;;31.26;42.81;94694.09;4895151;29;20031;-83
2021/06/26 08:36:21;;;;;;;27.52;5.75;;;;;;;31.45;44.31;94683.16;4907435;29;20033;-87
2021/06/26 08:38:46;;;;;;;21.80;4.85;;;;;;;30.54;43.71;94685.38;4896075;29;20486;-81
2021/06/26 08:41:12;;;;;;;25.02;5.22;;;;;;;32.15;41.15;94678.56;4896444;29;20478;-82
2021/06/26 08:43:37;;;;;;;18.20;4.53;;;;;;;32.25;41.13;94678.28;4897287;29;20486;-86
2021/06/26 08:46:03;;;;;;;26.33;5.22;;;;;;;31.40;43.88;94676.06;4898691;29;20028;-82
2021/06/26 08:48:28;;;;;;;25.17;5.82;;;;;;;31.09;44.49;94659.97;4914359;29;20028;-89
2021/06/26 08:50:54;;;;;;;21.63;5.65;;;;;;;32.23;43.47;94674.34;4898529;29;20099;-82
2021/06/26 08:53:20;;;;;;;19.10;4.80;;;;;;;31.91;42.73;94659.41;4896911;29;20024;-84
2021/06/26 08:55:45;;;;;;;16.73;4.80;;;;;;;31.43;41.66;94662.06;4898814;29;20115;-83
2021/06/26 08:58:11;;;;;;;21.27;5.13;;;;;;;32.03;42.30;94667.66;4881882;29;20032;-87
2021/06/26 09:00:36;;;;;;;19.08;5.13;;;;;;;31.70;40.62;94669.91;4881733;29;20474;-81
2021/06/26 09:03:09;;;;;;;22.95;5.28;;;;;;;31.39;41.03;94668.31;4898403;29;20024;-83
2021/06/26 09:05:35;;;;;;;17.52;4.22;;;;;;;32.05;39.11;94665.47;4913944;29;20064;-82
2021/06/26 09:08:10;;;;;;;19.35;4.35;;;;;;;32.98;38.76;94673.09;4898265;29;20383;-80
2021/06/26 09:10:36;;;;;;;24.13;4.60;;;;;;;32.91;38.57;94662.88;4912314;29;20020;-80
2021/06/26 09:13:10;;;;;;;18.05;4.40;;;;;;;32.95;38.59;94658.41;4915370;29;20020;-85
2021/06/26 09:15:36;;;;;;;22.42;4.80;;;;;;;32.21;39.13;94650.50;4896767;29;20029;-81
2021/06/26 09:18:10;;;;;;;22.88;4.40;;;;;;;31.98;40.29;94653.59;4897488;29;20027;-82
2021/06/26 09:20:40;;;;;;;11.30;3.35;;;;;;;32.25;41.51;94653.34;4882381;29;20032;-82
2021/06/26 09:23:36;;;;;;;17.75;4.22;;;;;;;31.27;38.07;94647.50;4897409;29;20033;-84
2021/06/26 09:26:14;;;;;;;20.50;5.03;;;;;;;31.68;40.88;94642.66;4883604;29;20502;-80
2021/06/26 09:28:40;;;;;;;20.30;5.40;;;;;;;31.94;42.49;94639.25;4881389;29;20135;-88
2021/06/26 09:31:15;;;;;;;18.65;6.80;;;;;;;32.29;41.24;94635.53;4897182;29;20510;-83
2021/06/26 09:33:41;;;;;;;14.80;4.65;;;;;;;31.80;40.65;94634.00;4881953;29;20047;-85
2021/06/26 09:36:10;;;;;;;17.25;4.93;;;;;;;32.57;41.95;94622.63;4896198;29;20028;-90
2021/06/26 09:38:59;;;;;;;19.65;4.72;;;;;;;32.54;38.95;94623.22;4881872;29;20517;-81
2021/06/26 09:41:24;;;;;;;23.38;4.50;;;;;;;32.33;41.36;94631.13;4896530;29;20036;-84
2021/06/26 09:43:50;;;;;;;25.85;4.35;;;;;;;31.70;41.25;94621.69;4896931;29;20431;-84
2021/06/26 09:46:17;;;;;;;17.15;4.82;;;;;;;30.84;39.57;94620.44;4897552;29;20080;-85
2021/06/26 09:49:03;;;;;;;18.05;4.07;;;;;;;31.79;38.71;94624.38;4895753;29;20130;-80
2021/06/26 09:51:30;;;;;;;19.58;3.92;;;;;;;32.30;39.07;94623.72;4897139;29;20033;-80
2021/06/26 09:53:56;;;;;;;23.40;4.47;;;;;;;31.80;41.80;94618.72;4895915;29;20039;-87
2021/06/26 09:56:22;;;;;;;22.88;4.90;;;;;;;31.75;41.04;94618.88;4897733;29;20372;-80
2021/06/26 09:58:51;;;;;;;16.33;4.55;;;;;;;32.28;38.21;94609.81;4880811;29;20021;-84
2021/06/26 10:01:18;;;;;;;21.92;4.32;;;;;;;31.63;38.59;94604.47;4880573;29;20601;-89
2021/06/26 10:03:44;;;;;;;17.75;5.40;;;;;;;31.61;36.36;94610.16;4897548;29;20100;-86
2021/06/26 10:06:09;;;;;;;22.40;4.50;;;;;;;31.80;38.75;94607.19;4879973;29;20036;-84
2021/06/26 10:08:35;;;;;;;17.92;4.88;;;;;;;31.34;38.27;94597.72;4897183;29;20039;-83
2021/06/26 10:11:00;;;;;;;31.58;5.00;;;;;;;31.71;36.83;94595.66;4895497;29;20028;-84
2021/06/26 10:13:25;;;;;;;18.90;3.38;;;;;;;31.50;37.17;94595.44;4881717;29;20490;-80
2021/06/26 10:15:51;;;;;;;21.90;4.07;;;;;;;32.60;38.30;94593.25;4895528;29;20036;-83
2021/06/26 10:18:16;;;;;;;23.45;4.25;;;;;;;31.92;38.26;94593.97;4881297;29;20032;-82
2021/06/26 10:20:43;;;;;;;24.52;4.60;;;;;;;32.75;37.17;94600.03;4896076;29;20043;-85
2021/06/26 10:23:08;;;;;;;17.88;4.45;;;;;;;33.20;40.50;94601.19;4896247;29;20099;-80
2021/06/26 10:25:39;;;;;;;24.40;5.40;;;;;;;33.31;41.47;94605.13;4896945;29;20235;-80
2021/06/26 10:28:09;;;;;;;18.73;5.15;;;;;;;33.25;39.96;94601.03;4895446;29;20111;-83
2021/06/26 10:30:35;;;;;;;18.38;4.95;;;;;;;32.28;38.46;94599.06;4912370;29;20498;-85
2021/06/26 10:33:08;;;;;;;12.38;3.50;;;;;;;32.43;38.44;94595.91;4895488;29;20060;-81
2021/06/26 10:35:35;;;;;;;15.10;3.30;;;;;;;32.89;38.03;94597.94;4896617;29;20399;-82
2021/06/26 10:38:10;;;;;;;18.80;4.70;;;;;;;33.39;42.51;94595.44;4896618;29;20082;-81
2021/06/26 10:40:46;;;;;;;19.25;4.50;;;;;;;33.09;38.29;94588.44;4910590;29;20035;-81
2021/06/26 10:43:18;;;;;;;16.52;4.20;;;;;;;32.07;36.82;94584.72;4913805;29;20025;-84
2021/06/26 10:45:44;;;;;;;17.52;4.07;;;;;;;32.81;38.91;94586.13;4910310;29;20083;-79
2021/06/26 10:48:21;;;;;;;18.25;4.47;;;;;;;32.88;41.28;94574.88;4896824;29;20028;-81
2021/06/26 10:50:48;;;;;;;19.67;4.55;;;;;;;33.04;38.62;94583.22;4879857;29;20039;-81
2021/06/26 10:53:33;;;;;;;25.95;4.80;;;;;;;33.33;39.99;94581.38;4880225;29;20548;-85
2021/06/26 10:56:03;;;;;;;20.58;4.03;;;;;;;32.35;35.65;94575.25;4896001;29;20031;-85
2021/06/26 10:58:33;;;;;;;13.00;3.90;;;;;;;32.75;39.32;94570.50;4895145;29;20103;-80
2021/06/26 11:01:09;;;;;;;19.63;4.50;;;;;;;32.94;38.80;94567.47;4895893;29;20047;-80
2021/06/26 11:03:35;;;;;;;23.90;4.82;;;;;;;33.14;37.78;94572.94;4895152;29;20048;-88
2021/06/26 11:06:01;;;;;;;26.33;4.88;;;;;;;32.94;35.04;94564.78;4879619;29;20032;-82
2021/06/26 11:08:26;;;;;;;19.88;3.83;;;;;;;33.10;36.17;94568.53;4913239;29;20025;-79
2021/06/26 11:10:52;;;;;;;19.42;4.47;;;;;;;32.87;35.77;94571.44;4910155;29;20031;-86
2021/06/26 11:13:19;;;;;;;24.05;5.10;;;;;;;32.37;36.57;94568.47;4912077;29;20039;-86
2021/06/26 11:15:44;;;;;;;17.40;4.55;;;;;;;33.16;38.07;94564.56;4910231;29;20035;-82
2021/06/26 11:18:15;;;;;;;18.00;4.53;;;;;;;33.43;40.43;94566.03;4896064;29;20407;-80
2021/06/26 11:20:40;;;;;;;27.58;5.35;;;;;;;33.12;38.64;94561.75;4894439;29;20029;-82
2021/06/26 11:23:07;;;;;;;29.73;5.05;;;;;;;32.79;35.80;94558.00;4895635;29;20035;-84
2021/06/26 11:25:32;;;;;;;20.30;4.32;;;;;;;32.03;35.38;94546.22;4895625;29;20491;-81
2021/06/26 11:28:02;;;;;;;20.92;3.72;;;;;;;33.36;37.14;94548.50;4894431;29;20036;-80
2021/06/26 11:30:28;;;;;;;17.25;4.22;;;;;;;32.65;39.53;94549.38;4906478;29;20032;-84
2021/06/26 11:32:59;;;;;;;22.33;4.32;;;;;;;32.85;37.92;94540.63;4885230;29;20096;-83
2021/06/26 11:35:36;;;;;;;18.20;5.13;;;;;;;31.79;36.43;94541.28;4861846;29;20033;-86
2021/06/26 11:38:02;;;;;;;21.23;4.32;;;;;;;31.63;37.91;94540.97;4845051;29;20025;-80
2021/06/26 11:40:29;;;;;;;22.38;4.82;;;;;;;31.52;38.06;94537.00;4868029;29;20035;-87
2021/06/26 11:42:59;;;;;;;29.08;5.43;;;;;;;31.21;40.93;94533.59;4879169;29;20122;-81
2021/06/26 11:45:29;;;;;;;24.75;4.45;;;;;;;31.29;39.28;94532.81;4871050;29;20064;-84
2021/06/26 11:48:01;;;;;;;16.65;3.83;;;;;;;31.18;42.55;94526.16;4880427;29;20068;-81
2021/06/26 11:50:27;;;;;;;24.70;4.43;;;;;;;31.28;44.77;94533.91;4891907;29;20036;-81
2021/06/26 11:53:11;;;;;;;16.50;4.55;;;;;;;32.85;40.13;94530.69;4879275;29;20024;-84
2021/06/26 11:55:40;;;;;;;15.00;4.90;;;;;;;32.11;44.85;94522.09;4891947;29;20055;-90
2021/06/26 11:58:05;;;;;;;28.08;5.35;;;;;;;32.73;41.62;94519.81;4888305;29;20028;-85
2021/06/26 12:00:31;;;;;;;21.60;4.63;;;;;;;32.77;39.70;94515.41;4884630;29;20032;-87
2021/06/26 12:02:56;;;;;;;27.33;4.30;;;;;;;32.58;41.58;94506.94;4874200;29;20024;-80
2021/06/26 12:05:22;;;;;;;22.40;5.07;;;;;;;32.14;36.74;94494.66;4890294;29;20099;-89
2021/06/26 12:07:48;;;;;;;17.55;4.70;;;;;;;32.03;38.22;94490.69;4865429;29;20859;-88
2021/06/26 12:10:14;;;;;;;23.52;4.93;;;;;;;32.11;36.89;94486.47;4911172;29;20036;-88
2021/06/26 12:12:40;;;;;;;24.63;4.22;;;;;;;32.36;40.68;94486.44;4894127;29;20039;-85
2021/06/26 12:15:07;;;;;;;23.45;5.50;;;;;;;31.55;38.80;94477.44;4892461;29;20123;-83
2021/06/26 12:17:33;;;;;;;29.90;5.85;;;;;;;31.83;40.52;94476.03;4895046;29;20036;-84
2021/06/26 12:20:06;;;;;;;22.30;4.45;;;;;;;31.43;40.59;94471.09;4877957;29;20067;-84
2021/06/26 12:22:32;;;;;;;18.95;4.13;;;;;;;31.08;40.51;94459.53;4888798;29;20484;-85
2021/06/26 12:25:08;;;;;;;33.17;5.05;;;;;;;31.54;42.14;94454.44;4871239;29;20079;-85
2021/06/26 12:27:34;;;;;;;25.60;4.60;;;;;;;31.97;40.85;94448.28;4892353;29;20403;-83
2021/06/26 12:30:01;;;;;;;28.73;5.05;;;;;;;31.65;42.08;94447.69;4881316;29;20040;-87
2021/06/26 12:32:34;;;;;;;30.35;5.60;;;;;;;31.60;41.25;94436.31;4875692;29;20033;-84
2021/06/26 12:35:00;;;;;;;23.33;5.22;;;;;;;31.77;42.52;94422.91;4891951;29;20032;-85
2021/06/26 12:37:33;;;;;;;23.58;4.00;;;;;;;32.26;41.80;94435.03;4874729;29;20549;-80
2021/06/26 12:40:06;;;;;;;30.23;5.50;;;;;;;31.89;39.97;94420.38;4893104;29;20080;-81
2021/06/26 12:42:36;;;;;;;21.08;4.80;;;;;;;32.38;40.83;94413.69;4890166;29;20025;-82
2021/06/26 12:45:01;;;;;;;23.00;4.85;;;;;;;32.08;38.75;94412.00;4891472;29;20048;-84
2021/06/26 12:47:27;;;;;;;18.38;3.97;;;;;;;32.33;40.69;94414.63;4878165;29;20044;-80
2021/06/26 12:50:13;;;;;;;15.88;4.43;;;;;;;32.50;42.23;94423.72;4893954;29;20032;-88
2021/06/26 12:52:38;;;;;;;17.10;4.82;;;;;;;32.73;40.17;94431.25;4865934;29;20490;-84
2021/06/26 12:55:04;;;;;;;23.52;4.85;;;;;;;32.31;38.60;94411.50;4877488;29;20334;-86
2021/06/26 12:57:37;;;;;;;25.30;5.22;;;;;;;31.42;39.75;94403.34;4863939;29;20056;-83
2021/06/26 13:00:19;;;;;;;25.60;5.72;;;;;;;31.40;38.53;94405.56;4893808;29;20034;-85
2021/06/26 13:02:46;;;;;;;23.40;4.88;;;;;;;31.35;39.14;94425.25;4842981;29;20044;-85
2021/06/26 13:05:19;;;;;;;26.98;4.47;;;;;;;31.44;40.50;94417.22;4895026;29;20032;-85
2021/06/26 13:07:45;;;;;;;28.73;5.30;;;;;;;30.76;40.06;94388.44;4859546;29;20045;-84
2021/06/26 13:10:10;;;;;;;23.55;5.25;;;;;;;30.89;40.94;94398.19;4862692;29;20498;-81
2021/06/26 13:12:36;;;;;;;27.77;5.45;;;;;;;30.47;43.26;94404.97;4875210;29;20036;-87
2021/06/26 13:15:04;;;;;;;26.70;5.55;;;;;;;30.27;46.98;94419.66;4909394;29;20111;-86
2021/06/26 13:17:35;;;;;;;21.70;4.72;;;;;;;30.48;50.70;94435.19;4893763;29;20028;-84
2021/06/26 13:20:54;;;;;;;28.30;5.07;;;;;;;30.31;49.57;94446.59;4878416;29;20545;-83
2021/06/26 13:34:08;;;;;;;19.95;4.85;;;;;;;28.85;58.00;94487.19;4913144;29;20050;-82
2021/06/26 13:43:06;;;;;;;9.13;1.60;;;;;;;29.53;28.71;94482.59;4894077;29;20116;-87
2021/06/26 13:45:32;;;;;;;7.28;1.90;;;;;;;29.15;32.54;94466.03;4878648;29;20040;-87
2021/06/26 13:47:57;;;;;;;8.45;1.63;;;;;;;28.81;32.74;94427.50;4878373;29;20040;-79
2021/06/26 13:50:23;;;;;;;11.55;2.10;;;;;;;28.63;34.10;94397.97;4877642;29;20041;-78
2021/06/26 13:52:48;;;;;;;7.88;1.65;;;;;;;29.13;27.70;94390.81;4879027;29;20047;-79
2021/06/26 13:55:14;;;;;;;16.50;2.72;;;;;;;28.51;34.77;94402.97;4892426;29;20036;-79
2021/06/26 13:57:39;;;;;;;13.57;2.33;;;;;;;28.00;39.65;94397.00;4895613;29;20024;-81
2021/06/26 14:00:05;;;;;;;10.38;2.60;;;;;;;28.06;40.17;94387.88;4876467;29;20062;-79
2021/06/26 14:02:31;;;;;;;10.68;2.78;;;;;;;28.27;41.11;94375.75;4878630;29;20521;-78
2021/06/26 14:04:56;;;;;;;14.43;2.17;;;;;;;28.57;40.61;94403.69;4877332;29;20041;-80
2021/06/26 14:07:22;;;;;;;14.02;2.83;;;;;;;27.64;45.61;94402.91;4878016;29;20415;-81
2021/06/26 14:09:48;;;;;;;10.85;1.67;;;;;;;28.06;46.80;94409.94;4878424;29;20662;-81
2021/06/26 14:12:13;;;;;;;17.73;2.72;;;;;;;28.34;43.33;94428.66;4876880;29;20035;-81
2021/06/26 14:14:39;;;;;;;11.30;2.75;;;;;;;28.40;45.14;94425.59;4889201;29;20040;-87
2021/06/26 14:17:04;;;;;;;17.08;2.47;;;;;;;28.90;40.33;94407.84;4876465;29;20037;-84
2021/06/26 14:19:30;;;;;;;8.57;2.05;;;;;;;28.39;48.29;94400.03;4877555;29;20056;-85
2021/06/26 14:21:55;;;;;;;10.68;2.33;;;;;;;28.30;52.78;94388.47;4907183;29;20417;-83
2021/06/26 14:24:21;;;;;;;6.53;2.20;;;;;;;28.54;51.64;94381.09;4886529;29;20064;-83
2021/06/26 14:26:47;;;;;;;10.85;2.33;;;;;;;29.55;50.36;94380.81;4862521;29;20051;-83
2021/06/26 14:29:13;;;;;;;7.10;2.55;;;;;;;30.00;49.09;94384.28;4880361;29;20490;-84
2021/06/26 14:31:39;;;;;;;11.00;2.65;;;;;;;30.03;48.31;94367.63;4896635;29;20083;-82
2021/06/26 14:34:05;;;;;;;11.63;2.83;;;;;;;30.07;45.97;94366.72;4864283;29;20028;-82
2021/06/26 14:36:30;;;;;;;14.07;3.75;;;;;;;29.33;52.61;94362.13;4880608;29;20565;-80
2021/06/26 14:38:56;;;;;;;14.00;4.15;;;;;;;28.91;54.67;94360.63;4863394;29;20032;-79
2021/06/26 14:41:21;;;;;;;12.38;3.83;;;;;;;28.67;50.66;94358.97;4877557;29;20113;-85
2021/06/26 14:43:47;;;;;;;19.48;3.97;;;;;;;28.43;52.27;94355.72;4901555;29;20076;-81
2021/06/26 14:46:14;;;;;;;13.32;3.08;;;;;;;28.10;54.44;94346.22;4866145;29;20519;-86
2021/06/26 14:48:40;;;;;;;20.50;3.75;;;;;;;28.58;54.00;94336.72;4877884;29;20675;-84
2021/06/26 14:51:06;;;;;;;22.65;3.35;;;;;;;28.70;50.23;94326.41;4894163;29;20036;-83
2021/06/26 14:53:32;;;;;;;13.05;2.95;;;;;;;29.17;50.37;94318.94;4869982;29;20087;-85
2021/06/26 14:55:57;;;;;;;10.52;2.60;;;;;;;29.34;47.53;94311.13;4863873;29;20036;-81
2021/06/26 14:58:24;;;;;;;19.63;2.75;;;;;;;29.36;52.11;94311.59;4880904;29;20095;-81
2021/06/26 15:00:52;;;;;;;19.65;3.55;;;;;;;29.41;54.84;94310.69;4911833;29;20136;-81
2021/06/26 15:03:18;;;;;;;19.02;3.70;;;;;;;29.18;55.04;94312.53;4892347;29;20134;-81
2021/06/26 15:05:43;;;;;;;25.20;5.00;;;;;;;29.25;55.22;94305.69;4877156;29;20606;-79
2021/06/26 15:08:09;;;;;;;22.17;4.47;;;;;;;29.21;55.51;94317.25;4909613;29;20028;-80
2021/06/26 15:10:34;;;;;;;23.05;5.07;;;;;;;28.96;58.62;94323.19;4891688;29;20394;-80
2021/06/26 15:13:00;;;;;;;19.23;5.00;;;;;;;28.87;59.76;94341.75;4880435;29;20330;-79
2021/06/26 15:15:26;;;;;;;24.48;4.72;;;;;;;28.87;60.58;94367.63;4881025;29;20051;-81
2021/06/26 15:17:52;;;;;;;23.17;5.90;;;;;;;28.70;62.63;94371.72;4879070;29;20130;-79
2021/06/26 15:20:19;;;;;;;15.30;4.90;;;;;;;28.83;61.44;94380.81;4896127;29;20036;-78
2021/06/26 15:22:44;;;;;;;14.38;4.18;;;;;;;28.71;57.46;94396.50;4910602;29;20044;-79
2021/06/26 15:25:10;;;;;;;17.35;5.05;;;;;;;28.50;60.17;94400.63;4896008;29;20036;-79
2021/06/26 15:27:36;;;;;;;23.65;5.05;;;;;;;28.23;64.22;94401.38;4880615;29;20028;-80
2021/06/26 15:30:03;;;;;;;20.55;5.43;;;;;;;27.93;67.25;94405.38;4879766;29;20024;-80
2021/06/26 15:32:29;;;;;;;19.00;5.35;;;;;;;27.50;68.25;94415.38;4895179;29;20846;-79
2021/06/26 15:34:55;;;;;;;27.85;5.55;;;;;;;27.36;69.75;94433.09;4897163;29;20530;-78
2021/06/26 15:37:20;;;;;;;27.60;5.88;;;;;;;26.77;69.47;94446.88;4873659;29;20690;-77
2021/06/26 15:39:46;;;;;;;27.88;5.82;;;;;;;26.39;68.93;94471.75;4882156;29;20387;-80
2021/06/26 17:53:16;;;;;;;14.60;2.92;;;;;;;18.62;88.17;94615.81;5125471;27;20821;-77
2021/06/26 17:55:53;;;;;;;11.45;3.55;;;;;;;18.79;87.62;94626.44;5073279;28;20035;-78
2021/06/26 17:58:19;;;;;;;14.15;3.03;;;;;;;18.79;87.37;94637.72;5091508;28;20099;-78
2021/06/26 18:00:45;;;;;;;20.63;4.55;;;;;;;18.70;87.62;94625.19;5090744;28;20643;-78
2021/06/26 18:03:10;;;;;;;11.07;3.20;;;;;;;18.87;86.15;94618.22;5103754;28;20019;-79
2021/06/26 18:05:36;;;;;;;8.32;3.50;;;;;;;18.90;85.43;94620.38;5087317;28;20487;-76
2021/06/26 18:08:01;;;;;;;17.50;4.03;;;;;;;18.56;87.24;94598.38;5121100;28;20023;-84
2021/06/26 18:10:27;;;;;;;23.98;4.35;;;;;;;18.46;89.99;94636.69;5086629;28;20027;-77
2021/06/26 18:12:54;;;;;;;11.32;3.63;;;;;;;18.58;89.28;94646.19;5079492;28;20088;-76
2021/06/26 18:15:19;;;;;;;16.50;5.10;;;;;;;18.60;88.23;94654.63;5104622;28;20047;-82
2021/06/26 18:17:45;;;;;;;18.55;6.60;;;;;;;18.45;88.94;94638.50;5106868;28;20038;-76
2021/06/26 18:20:11;;;;;;;12.82;7.30;;;;;;;18.55;88.92;94648.47;5086177;28;20030;-86
2021/06/26 18:22:37;;;;;;;10.75;4.13;;;;;;;18.59;88.55;94647.75;5097734;28;20023;-73
2021/06/26 18:25:05;;;;;;;10.55;3.63;;;;;;;18.62;87.73;94657.03;5070435;28;20073;-74
2021/06/26 18:27:30;;;;;;;14.45;5.60;;;;;;;18.58;88.59;94658.50;5084762;28;20567;-73
2021/06/26 18:29:56;;;;;;;21.10;12.35;;;;;;;18.71;90.51;94682.69;5069980;28;20060;-75
2021/06/26 18:32:21;;;;;;;51.15;34.47;;;;;;;18.89;89.84;94681.78;5084436;28;20027;-75
2021/06/26 18:34:47;;;;;;;17.55;9.52;;;;;;;18.59;89.61;94681.09;5093037;28;20032;-75
2021/06/26 18:37:12;;;;;;;16.85;10.98;;;;;;;18.53;92.47;94681.97;5067420;28;20032;-77
2021/06/26 18:39:38;;;;;;;21.92;13.70;;;;;;;18.33;93.61;94685.66;5117049;28;20066;-76
2021/06/26 18:42:04;;;;;;;20.20;7.63;;;;;;;18.33;93.19;94701.41;5128322;27;20032;-75
2021/06/26 18:44:30;;;;;;;8.27;3.70;;;;;;;18.25;90.89;94693.06;5068986;28;20023;-75
2021/06/26 18:46:56;;;;;;;21.05;11.00;;;;;;;18.74;90.86;94718.97;5067185;28;20024;-75
2021/06/26 18:49:25;;;;;;;24.13;13.73;;;;;;;18.40;89.92;94704.72;5084318;28;20073;-75
2021/06/26 18:51:54;;;;;;;11.45;5.20;;;;;;;18.67;91.47;94730.59;5083722;28;20040;-75
2021/06/26 18:54:20;;;;;;;15.43;7.32;;;;;;;18.55;91.22;94737.66;5070271;28;20045;-75